createdAt,value
2019-05-26T00:00:21.509Z,13.20
2019-05-26T00:02:53.775Z,13.10
2019-05-26T00:05:26.666Z,13.10
2019-05-26T00:07:59.093Z,13.10
2019-05-26T00:10:31.058Z,13.10
2019-05-26T00:13:02.226Z,13.10
2019-05-26T00:15:40.635Z,13.10
2019-05-26T00:18:12.775Z,13.00
2019-05-26T00:20:45.698Z,13.00
2019-05-26T00:23:18.939Z,13.00
2019-05-26T00:25:49.788Z,12.90
2019-05-26T00:28:24.786Z,12.90
2019-05-26T00:30:57.261Z,12.90
2019-05-26T00:33:29.675Z,12.90
2019-05-26T00:36:00.839Z,12.80
2019-05-26T00:38:33.077Z,12.80
2019-05-26T00:41:03.841Z,12.80
2019-05-26T00:43:34.123Z,12.80
2019-05-26T00:46:04.929Z,12.70
2019-05-26T00:48:37.402Z,12.70
2019-05-26T00:51:10.327Z,12.60
2019-05-26T00:53:41.407Z,12.60
2019-05-26T00:56:11.328Z,12.50
2019-05-26T00:58:42.399Z,12.50
2019-05-26T01:01:13.444Z,12.50
2019-05-26T01:03:45.389Z,12.40
2019-05-26T01:06:18.205Z,12.40
2019-05-26T01:08:49.168Z,12.30
2019-05-26T01:11:22.138Z,12.30
2019-05-26T01:13:54.516Z,12.20
2019-05-26T01:16:26.652Z,12.20
2019-05-26T01:18:57.926Z,12.20
2019-05-26T01:21:30.102Z,12.20
2019-05-26T01:24:01.150Z,12.10
2019-05-26T01:26:32.218Z,12.10
2019-05-26T01:29:03.098Z,12.10
2019-05-26T01:31:34.565Z,12.00
2019-05-26T01:34:06.079Z,12.00
2019-05-26T01:36:39.082Z,12.00
2019-05-26T01:39:10.844Z,11.90
2019-05-26T01:41:41.986Z,11.90
2019-05-26T01:44:13.643Z,11.80
2019-05-26T01:46:47.241Z,11.80
2019-05-26T01:49:17.156Z,11.80
2019-05-26T01:51:48.528Z,11.80
2019-05-26T01:54:19.972Z,11.80
2019-05-26T01:56:52.770Z,11.70
2019-05-26T01:59:22.805Z,11.70
2019-05-26T02:01:58.818Z,11.70
2019-05-26T02:04:33.733Z,11.60
2019-05-26T02:07:04.739Z,11.60
2019-05-26T02:09:37.131Z,11.50
2019-05-26T02:12:07.405Z,11.50
2019-05-26T02:14:38.554Z,11.40
2019-05-26T02:17:09.557Z,11.40
2019-05-26T02:19:42.010Z,11.40
2019-05-26T02:22:13.110Z,11.40
2019-05-26T02:24:44.033Z,11.30
2019-05-26T02:27:16.689Z,11.30
2019-05-26T02:29:48.946Z,11.20
2019-05-26T02:32:20.061Z,11.20
2019-05-26T02:34:54.365Z,11.20
2019-05-26T02:37:27.001Z,11.20
2019-05-26T02:39:56.937Z,11.20
2019-05-26T02:42:28.387Z,11.20
2019-05-26T02:44:59.692Z,11.20
2019-05-26T02:47:31.783Z,11.10
2019-05-26T02:50:06.221Z,11.00
2019-05-26T02:52:39.972Z,10.90
2019-05-26T02:55:11.085Z,10.90
2019-05-26T02:57:42.108Z,10.90
2019-05-26T03:00:13.665Z,10.90
2019-05-26T03:02:43.911Z,10.90
2019-05-26T03:05:16.277Z,10.90
2019-05-26T03:07:46.189Z,10.90
2019-05-26T03:10:18.887Z,10.90
2019-05-26T03:12:51.070Z,10.90
2019-05-26T03:15:25.855Z,10.90
2019-05-26T03:18:00.996Z,10.90
2019-05-26T03:20:34.789Z,10.90
2019-05-26T03:23:07.011Z,10.90
2019-05-26T03:25:38.540Z,10.90
2019-05-26T03:28:11.297Z,10.90
2019-05-26T03:30:41.205Z,10.90
2019-05-26T03:33:12.086Z,10.90
2019-05-26T03:35:44.279Z,10.80
2019-05-26T03:38:15.735Z,10.80
2019-05-26T03:40:46.997Z,10.70
2019-05-26T03:43:18.188Z,10.70
2019-05-26T03:46:08.825Z,10.70
2019-05-26T03:48:41.121Z,10.60
2019-05-26T03:51:12.427Z,10.60
2019-05-26T03:53:44.862Z,10.50
2019-05-26T03:56:16.334Z,10.50
2019-05-26T03:58:48.927Z,10.60
2019-05-26T04:01:22.482Z,10.60
2019-05-26T04:03:55.181Z,10.70
2019-05-26T04:06:26.074Z,10.70
2019-05-26T04:08:59.165Z,10.80
2019-05-26T04:11:28.841Z,10.90
2019-05-26T04:14:02.442Z,10.90
2019-05-26T04:16:35.430Z,11.00
2019-05-26T04:19:09.654Z,11.10
2019-05-26T04:21:42.457Z,11.20
2019-05-26T04:24:12.548Z,11.20
2019-05-26T04:26:44.077Z,11.30
2019-05-26T04:29:17.102Z,11.50
2019-05-26T04:31:46.886Z,11.70
2019-05-26T04:34:18.993Z,11.70
2019-05-26T04:36:51.565Z,11.80
2019-05-26T04:39:24.084Z,11.90
2019-05-26T04:41:57.821Z,12.10
2019-05-26T04:44:30.097Z,12.30
2019-05-26T04:47:03.436Z,12.50
2019-05-26T04:49:37.425Z,12.70
2019-05-26T04:52:05.070Z,12.90
2019-05-26T04:54:36.133Z,13.00
2019-05-26T04:57:07.208Z,13.10
2019-05-26T04:59:38.475Z,13.30
2019-05-26T05:02:09.527Z,13.60
2019-05-26T05:04:42.213Z,13.70
2019-05-26T05:07:13.490Z,13.90
2019-05-26T05:09:45.287Z,14.20
2019-05-26T05:12:16.825Z,14.30
2019-05-26T05:14:48.190Z,14.60
2019-05-26T05:17:19.256Z,14.70
2019-05-26T05:19:50.458Z,14.90
2019-05-26T05:22:23.224Z,15.10
2019-05-26T05:24:55.559Z,15.30
2019-05-26T05:27:30.348Z,15.50
2019-05-26T05:30:09.402Z,15.80
2019-05-26T05:32:44.080Z,16.00
2019-05-26T05:35:33.369Z,16.10
2019-05-26T05:38:05.615Z,16.20
2019-05-26T05:40:40.791Z,16.50
2019-05-26T05:43:11.961Z,16.80
2019-05-26T05:45:45.536Z,17.00
2019-05-26T05:48:16.468Z,17.10
2019-05-26T05:50:50.660Z,17.20
2019-05-26T05:53:22.251Z,17.30
2019-05-26T05:55:55.299Z,17.50
2019-05-26T05:58:26.715Z,17.80
2019-05-26T06:01:01.067Z,17.90
2019-05-26T06:03:32.070Z,18.00
2019-05-26T06:06:02.985Z,18.10
2019-05-26T06:08:36.355Z,18.00
2019-05-26T06:11:16.494Z,17.90
2019-05-26T06:13:42.340Z,18.00
2019-05-26T06:16:15.543Z,18.20
2019-05-26T06:18:47.915Z,18.40
2019-05-26T06:21:21.834Z,18.30
2019-05-26T06:23:51.151Z,18.30
2019-05-26T06:26:23.377Z,18.50
2019-05-26T06:28:55.325Z,18.60
2019-05-26T06:31:29.562Z,18.90
2019-05-26T06:33:59.707Z,19.00
2019-05-26T06:36:29.709Z,19.20
2019-05-26T06:39:04.222Z,19.50
2019-05-26T06:41:35.457Z,20.00
2019-05-26T06:44:09.332Z,20.10
2019-05-26T06:46:42.651Z,20.10
2019-05-26T06:49:13.719Z,20.40
2019-05-26T06:51:44.866Z,20.60
2019-05-26T06:54:19.003Z,20.70
2019-05-26T06:56:51.609Z,20.60
2019-05-26T06:59:23.887Z,20.50
2019-05-26T07:01:56.187Z,20.70
2019-05-26T07:04:27.556Z,20.80
2019-05-26T07:07:02.064Z,20.80
2019-05-26T07:09:34.569Z,20.90
2019-05-26T07:12:07.828Z,21.20
2019-05-26T07:14:38.776Z,21.50
2019-05-26T07:17:11.223Z,21.40
2019-05-26T07:19:42.832Z,21.30
2019-05-26T07:22:17.516Z,21.40
2019-05-26T07:24:50.759Z,21.70
2019-05-26T07:27:20.844Z,21.90
2019-05-26T07:29:50.944Z,21.90
2019-05-26T07:32:24.710Z,21.90
2019-05-26T07:34:59.320Z,21.60
2019-05-26T07:37:31.735Z,21.40
2019-05-26T07:40:07.300Z,21.30
2019-05-26T07:45:16.643Z,21.50
2019-05-26T07:47:47.799Z,21.70
2019-05-26T07:50:21.138Z,21.80
2019-05-26T07:52:54.953Z,22.20
2019-05-26T07:55:26.312Z,22.50
2019-05-26T07:57:58.789Z,22.60
2019-05-26T08:00:29.954Z,22.70
2019-05-26T08:03:02.560Z,22.70
2019-05-26T08:05:34.909Z,22.90
2019-05-26T08:08:12.783Z,23.20
2019-05-26T08:10:37.136Z,23.60
2019-05-26T08:13:07.003Z,23.40
2019-05-26T08:15:42.018Z,22.90
2019-05-26T08:18:13.961Z,22.60
2019-05-26T08:20:45.171Z,22.50
2019-05-26T08:23:16.302Z,22.60
2019-05-26T08:25:47.909Z,22.90
2019-05-26T08:28:18.901Z,23.30
2019-05-26T08:30:49.858Z,23.40
2019-05-26T08:33:19.708Z,23.30
2019-05-26T08:35:51.035Z,23.60
2019-05-26T08:38:21.868Z,23.90
2019-05-26T08:40:54.465Z,24.20
2019-05-26T08:43:26.825Z,24.50
2019-05-26T08:45:58.029Z,24.90
2019-05-26T08:48:30.776Z,25.20
2019-05-26T08:51:01.911Z,24.90
2019-05-26T08:53:35.142Z,24.50
2019-05-26T08:56:08.866Z,24.40
2019-05-26T08:58:39.856Z,24.40
2019-05-26T09:01:13.678Z,24.90
2019-05-26T09:03:46.237Z,25.20
2019-05-26T09:06:21.317Z,25.60
2019-05-26T09:08:54.185Z,26.00
2019-05-26T09:11:28.026Z,26.10
2019-05-26T09:13:57.897Z,25.90
2019-05-26T09:16:30.274Z,25.70
2019-05-26T09:19:03.213Z,25.70
2019-05-26T09:21:38.356Z,25.30
2019-05-26T09:24:09.819Z,25.70
2019-05-26T09:26:41.802Z,25.80
2019-05-26T09:29:12.777Z,26.10
2019-05-26T09:31:46.862Z,26.30
2019-05-26T09:34:20.337Z,26.00
2019-05-26T09:36:53.120Z,25.70
2019-05-26T09:39:25.831Z,25.50
2019-05-26T09:41:58.650Z,25.20
2019-05-26T09:44:28.775Z,24.90
2019-05-26T09:47:01.144Z,25.00
2019-05-26T09:49:32.082Z,25.40
2019-05-26T09:52:04.411Z,25.20
2019-05-26T09:54:40.270Z,25.00
2019-05-26T09:57:13.103Z,25.20
2019-05-26T09:59:44.208Z,25.70
2019-05-26T10:02:15.877Z,26.00
2019-05-26T10:04:45.841Z,26.40
2019-05-26T10:07:16.842Z,26.70
2019-05-26T10:09:48.755Z,26.90
2019-05-26T10:12:18.860Z,27.00
2019-05-26T10:14:53.214Z,27.30
2019-05-26T10:17:24.401Z,27.30
2019-05-26T10:19:57.763Z,27.40
2019-05-26T10:22:29.716Z,27.60
2019-05-26T10:25:04.588Z,28.00
2019-05-26T10:27:37.140Z,28.20
2019-05-26T10:30:14.695Z,28.40
2019-05-26T10:32:45.839Z,28.50
2019-05-26T10:35:17.444Z,28.50
2019-05-26T10:37:50.446Z,28.20
2019-05-26T10:40:26.014Z,27.80
2019-05-26T10:42:57.875Z,27.60
2019-05-26T10:45:34.157Z,27.40
2019-05-26T10:48:03.744Z,27.00
2019-05-26T10:50:35.045Z,26.70
2019-05-26T10:53:07.540Z,26.70
2019-05-26T10:55:39.171Z,26.70
2019-05-26T10:58:11.787Z,27.20
2019-05-26T11:00:44.712Z,27.30
2019-05-26T11:03:15.783Z,27.70
2019-05-26T11:05:49.528Z,27.60
2019-05-26T11:08:22.110Z,27.60
2019-05-26T11:10:56.233Z,27.60
2019-05-26T11:13:27.892Z,27.50
2019-05-26T11:15:57.811Z,27.50
2019-05-26T11:18:29.284Z,27.50
2019-05-26T11:21:19.650Z,27.70
2019-05-26T11:23:51.213Z,27.80
2019-05-26T11:26:24.850Z,28.30
2019-05-26T11:28:56.610Z,28.60
2019-05-26T11:31:27.777Z,28.40
2019-05-26T11:34:00.671Z,28.50
2019-05-26T11:36:30.626Z,28.70
2019-05-26T11:39:05.856Z,28.80
2019-05-26T11:41:37.558Z,28.50
2019-05-26T11:44:17.635Z,28.30
2019-05-26T11:46:39.739Z,28.00
2019-05-26T11:49:11.028Z,28.10
2019-05-26T11:51:43.497Z,28.40
2019-05-26T11:54:15.934Z,28.40
2019-05-26T11:56:48.406Z,28.20
2019-05-26T11:59:23.236Z,28.40
2019-05-26T12:01:57.784Z,28.80
2019-05-26T12:04:29.332Z,28.50
2019-05-26T12:07:04.626Z,28.20
2019-05-26T12:09:36.048Z,28.00
2019-05-26T12:12:08.816Z,28.30
2019-05-26T12:14:40.402Z,28.20
2019-05-26T12:17:14.532Z,28.00
2019-05-26T12:19:49.935Z,27.60
2019-05-26T12:22:22.399Z,26.80
2019-05-26T12:24:55.479Z,26.50
2019-05-26T12:27:25.511Z,26.30
2019-05-26T12:29:55.651Z,25.80
2019-05-26T12:32:45.957Z,25.30
2019-05-26T12:35:18.223Z,24.90
2019-05-26T12:37:51.646Z,24.90
2019-05-26T12:40:24.534Z,25.00
2019-05-26T12:42:55.714Z,25.20
2019-05-26T12:45:28.533Z,25.60
2019-05-26T12:50:32.665Z,25.80
2019-05-26T12:53:02.976Z,25.70
2019-05-26T12:55:34.359Z,25.60
2019-05-26T12:58:09.262Z,25.60
2019-05-26T13:00:48.985Z,25.40
2019-05-26T13:03:17.359Z,25.20
2019-05-26T13:05:50.084Z,25.10
2019-05-26T13:08:21.978Z,24.90
2019-05-26T13:13:26.330Z,25.00
2019-05-26T13:16:00.049Z,25.00
2019-05-26T13:18:33.745Z,24.80
2019-05-26T13:21:08.828Z,24.70
2019-05-26T13:23:41.291Z,24.60
2019-05-26T13:26:13.710Z,24.70
2019-05-26T13:28:46.793Z,24.80
2019-05-26T13:31:17.286Z,25.00
2019-05-26T13:33:48.474Z,25.30
2019-05-26T13:36:20.876Z,25.20
2019-05-26T13:38:52.047Z,25.30
2019-05-26T13:41:23.585Z,25.20
2019-05-26T13:43:55.661Z,25.40
2019-05-26T13:46:29.917Z,25.40
2019-05-26T13:49:02.604Z,25.30
2019-05-26T13:51:34.529Z,25.10
2019-05-26T13:54:06.908Z,25.00
2019-05-26T13:56:37.394Z,25.00
2019-05-26T13:59:12.641Z,25.00
2019-05-26T14:01:45.273Z,25.20
2019-05-26T14:04:16.954Z,25.30
2019-05-26T14:06:48.687Z,25.30
2019-05-26T14:09:19.928Z,25.10
2019-05-26T14:11:52.359Z,25.20
2019-05-26T14:14:24.676Z,25.10
2019-05-26T14:16:57.109Z,25.10
2019-05-26T14:22:01.399Z,25.00
2019-05-26T14:24:32.387Z,25.00
2019-05-26T14:27:05.104Z,24.80
2019-05-26T14:29:36.460Z,24.80
2019-05-26T14:32:08.745Z,24.70
2019-05-26T14:34:40.281Z,24.80
2019-05-26T14:37:10.555Z,24.70
2019-05-26T14:39:41.858Z,24.50
2019-05-26T14:42:13.923Z,24.50
2019-05-26T14:44:46.657Z,24.50
2019-05-26T14:47:16.628Z,24.40
2019-05-26T14:49:50.927Z,24.30
2019-05-26T14:52:23.306Z,24.40
2019-05-26T14:54:56.806Z,24.30
2019-05-26T14:57:31.027Z,24.30
2019-05-26T15:00:02.004Z,24.30
2019-05-26T15:02:34.326Z,24.30
2019-05-26T15:05:08.150Z,24.20
2019-05-26T15:07:41.216Z,24.20
2019-05-26T15:10:16.569Z,24.30
2019-05-26T15:12:47.802Z,24.30
2019-05-26T15:15:20.246Z,24.30
2019-05-26T15:17:51.417Z,24.20
2019-05-26T15:20:21.523Z,24.10
2019-05-26T15:22:53.191Z,24.10
2019-05-26T15:25:26.496Z,24.20
2019-05-26T15:27:57.788Z,24.20
2019-05-26T15:30:30.152Z,24.20
2019-05-26T15:33:03.436Z,24.10
2019-05-26T15:35:35.194Z,24.00
2019-05-26T15:38:06.250Z,23.90
2019-05-26T15:40:40.013Z,23.70
2019-05-26T15:43:13.049Z,23.70
2019-05-26T15:45:46.253Z,23.60
2019-05-26T15:48:18.960Z,23.60
2019-05-26T15:50:50.073Z,23.70
2019-05-26T15:53:21.634Z,23.70
2019-05-26T15:55:51.781Z,23.70
2019-05-26T15:58:26.446Z,23.70
2019-05-26T16:00:59.371Z,23.70
2019-05-26T16:03:30.555Z,23.80
2019-05-26T16:06:02.108Z,23.70
2019-05-26T16:08:37.165Z,23.70
2019-05-26T16:11:08.119Z,23.60
2019-05-26T16:13:38.173Z,23.50
2019-05-26T16:16:10.343Z,23.40
2019-05-26T16:18:41.800Z,23.40
2019-05-26T16:21:26.948Z,23.40
2019-05-26T16:23:49.106Z,23.40
2019-05-26T16:26:19.073Z,23.40
2019-05-26T16:28:52.632Z,23.30
2019-05-26T16:31:24.106Z,23.30
2019-05-26T16:33:55.582Z,23.20
2019-05-26T16:36:26.554Z,23.10
2019-05-26T16:38:57.968Z,23.00
2019-05-26T16:41:30.347Z,23.00
2019-05-26T16:44:02.973Z,22.90
2019-05-26T16:46:35.499Z,22.90
2019-05-26T16:49:06.810Z,22.90
2019-05-26T16:51:37.983Z,22.80
2019-05-26T16:54:09.669Z,22.80
2019-05-26T16:56:42.046Z,22.70
2019-05-26T16:59:13.068Z,22.70
2019-05-26T17:01:45.607Z,22.70
2019-05-26T17:04:18.022Z,22.70
2019-05-26T17:06:49.279Z,22.70
2019-05-26T17:09:22.349Z,22.70
2019-05-26T17:11:54.194Z,22.70
2019-05-26T17:14:24.513Z,22.60
2019-05-26T17:17:13.448Z,22.50
2019-05-26T17:19:30.509Z,22.40
2019-05-26T17:22:02.167Z,22.30
2019-05-26T17:24:33.512Z,22.20
2019-05-26T17:27:07.810Z,22.20
2019-05-26T17:29:40.489Z,22.20
2019-05-26T17:32:13.107Z,22.10
2019-05-26T17:34:43.461Z,22.00
2019-05-26T17:37:14.327Z,22.00
2019-05-26T17:39:48.262Z,21.90
2019-05-26T17:42:23.547Z,21.80
2019-05-26T17:44:55.765Z,21.70
2019-05-26T17:47:30.733Z,21.70
2019-05-26T17:50:03.235Z,21.70
2019-05-26T17:52:36.136Z,21.60
2019-05-26T17:55:12.166Z,21.50
2019-05-26T17:57:43.089Z,21.40
2019-05-26T18:00:16.067Z,21.40
2019-05-26T18:02:47.151Z,21.30
2019-05-26T18:05:18.538Z,21.20
2019-05-26T18:07:51.512Z,21.10
2019-05-26T18:10:24.009Z,21.00
2019-05-26T18:12:54.761Z,20.90
2019-05-26T18:15:28.810Z,20.80
2019-05-26T18:18:01.258Z,20.80
2019-05-26T18:20:33.571Z,20.70
2019-05-26T18:23:04.706Z,20.60
2019-05-26T18:25:39.400Z,20.60
2019-05-26T18:28:10.466Z,20.40
2019-05-26T18:31:02.051Z,20.30
2019-05-26T18:33:34.632Z,20.30
2019-05-26T18:36:05.575Z,20.20
2019-05-26T18:38:36.406Z,20.10
2019-05-26T18:41:08.062Z,20.10
2019-05-26T18:43:38.060Z,20.00
2019-05-26T18:46:09.571Z,20.00
2019-05-26T18:48:41.895Z,20.00
2019-05-26T18:51:12.939Z,19.90
2019-05-26T18:53:45.483Z,19.90
2019-05-26T18:56:16.910Z,19.90
2019-05-26T18:58:47.895Z,19.80
2019-05-26T19:01:18.822Z,19.80
2019-05-26T19:03:49.747Z,19.70
2019-05-26T19:06:22.389Z,19.60
2019-05-26T19:08:53.171Z,19.50
2019-05-26T19:11:24.185Z,19.50
2019-05-26T19:13:57.499Z,19.40
2019-05-26T19:16:28.263Z,19.40
2019-05-26T19:18:58.133Z,19.30
2019-05-26T19:21:32.408Z,19.30
2019-05-26T19:24:07.227Z,19.20
2019-05-26T19:26:40.094Z,19.20
2019-05-26T19:29:10.062Z,19.10
2019-05-26T19:31:43.878Z,19.00
2019-05-26T19:34:14.872Z,19.00
2019-05-26T19:36:46.145Z,19.00
2019-05-26T19:39:16.129Z,18.90
2019-05-26T19:41:48.759Z,18.90
2019-05-26T19:46:53.535Z,18.70
2019-05-26T19:49:25.644Z,18.60
2019-05-26T19:51:59.991Z,18.50
2019-05-26T19:54:30.041Z,18.50
2019-05-26T19:57:01.041Z,18.40
2019-05-26T19:59:31.941Z,18.40
2019-05-26T20:02:17.245Z,18.30
2019-05-26T20:04:37.109Z,18.20
2019-05-26T20:07:10.377Z,18.20
2019-05-26T20:09:41.688Z,18.00
2019-05-26T20:12:12.682Z,18.00
2019-05-26T20:14:44.820Z,17.90
2019-05-26T20:17:15.054Z,17.80
2019-05-26T20:19:46.185Z,17.80
2019-05-26T20:22:17.393Z,17.70
2019-05-26T20:24:48.900Z,17.60
2019-05-26T20:27:21.516Z,17.50
2019-05-26T20:29:53.836Z,17.50
2019-05-26T20:32:25.300Z,17.40
2019-05-26T20:34:58.307Z,17.40
2019-05-26T20:37:30.776Z,17.30
2019-05-26T20:40:00.701Z,17.20
2019-05-26T20:42:32.188Z,17.20
2019-05-26T20:45:03.467Z,17.10
2019-05-26T20:47:38.629Z,17.10
2019-05-26T20:50:09.956Z,17.00
2019-05-26T20:52:40.762Z,17.00
2019-05-26T20:55:12.961Z,16.90
2019-05-26T20:57:44.123Z,16.90
2019-05-26T21:00:17.490Z,16.80
2019-05-26T21:02:49.840Z,16.80
2019-05-26T21:05:21.763Z,16.70
2019-05-26T21:07:54.110Z,16.70
2019-05-26T21:10:24.972Z,16.60
2019-05-26T21:13:15.148Z,16.60
2019-05-26T21:15:48.361Z,16.60
2019-05-26T21:18:19.432Z,16.50
2019-05-26T21:20:51.041Z,16.50
2019-05-26T21:23:24.109Z,16.40
2019-05-26T21:25:56.499Z,16.30
2019-05-26T21:28:28.726Z,16.30
2019-05-26T21:31:01.302Z,16.30
2019-05-26T21:33:31.066Z,16.20
2019-05-26T21:36:01.042Z,16.10
2019-05-26T21:38:34.189Z,16.10
2019-05-26T21:41:05.133Z,16.00
2019-05-26T21:43:37.944Z,16.00
2019-05-26T21:46:07.841Z,15.90
2019-05-26T21:48:39.102Z,15.90
2019-05-26T21:51:11.284Z,15.80
2019-05-26T21:53:43.968Z,15.80
2019-05-26T21:56:13.983Z,15.80
2019-05-26T21:58:43.890Z,15.70
2019-05-26T22:01:13.195Z,15.70
2019-05-26T22:03:43.530Z,15.70
2019-05-26T22:06:13.371Z,15.70
2019-05-26T22:08:45.427Z,15.60
2019-05-26T22:11:17.757Z,15.60
2019-05-26T22:13:52.080Z,15.60
2019-05-26T22:16:23.427Z,15.50
2019-05-26T22:18:54.858Z,15.50
2019-05-26T22:21:28.626Z,15.50
2019-05-26T22:23:59.853Z,15.50
2019-05-26T22:26:31.287Z,15.40
2019-05-26T22:29:02.269Z,15.30
2019-05-26T22:31:34.906Z,15.30
2019-05-26T22:34:05.834Z,15.30
2019-05-26T22:36:38.315Z,15.30
2019-05-26T22:39:10.064Z,15.20
2019-05-26T22:41:42.231Z,15.20
2019-05-26T22:44:17.908Z,15.10
2019-05-26T22:46:48.008Z,15.00
2019-05-26T22:49:19.538Z,15.00
2019-05-26T22:51:49.616Z,14.90
2019-05-26T22:54:22.036Z,15.00
2019-05-26T22:56:53.062Z,15.00
2019-05-26T22:59:23.015Z,15.00
2019-05-26T23:01:52.977Z,15.00
2019-05-26T23:04:22.755Z,15.00
2019-05-26T23:06:53.409Z,15.00
2019-05-26T23:09:22.666Z,15.00
2019-05-26T23:11:55.025Z,15.00
2019-05-26T23:14:27.453Z,14.90
2019-05-26T23:16:58.402Z,14.80
2019-05-26T23:19:29.643Z,14.80
2019-05-26T23:22:00.097Z,14.70
2019-05-26T23:24:31.066Z,14.70
2019-05-26T23:27:00.130Z,14.60
2019-05-26T23:29:32.825Z,14.60
2019-05-26T23:32:07.623Z,14.60
2019-05-26T23:34:42.728Z,14.60
2019-05-26T23:37:15.624Z,14.50
2019-05-26T23:39:46.546Z,14.50
2019-05-26T23:42:17.850Z,14.50
2019-05-26T23:44:49.772Z,14.50
2019-05-26T23:47:28.448Z,14.40
2019-05-26T23:49:59.602Z,14.40
2019-05-26T23:52:29.519Z,14.30
2019-05-26T23:55:00.498Z,14.40
2019-05-26T23:57:31.362Z,14.40
